createdAt,value
2023-08-04T00:01:17.643Z,25.73
2023-08-04T00:03:46.235Z,25.78
2023-08-04T00:06:13.602Z,25.80
2023-08-04T00:08:41.120Z,25.73
2023-08-04T00:11:08.410Z,25.72
2023-08-04T00:13:35.799Z,25.72
2023-08-04T00:16:10.557Z,25.75
2023-08-04T00:18:38.175Z,25.57
2023-08-04T00:21:06.142Z,25.52
2023-08-04T00:23:33.459Z,25.48
2023-08-04T00:26:00.907Z,25.39
2023-08-04T00:28:28.792Z,25.33
2023-08-04T00:30:56.207Z,25.35
2023-08-04T00:33:24.218Z,25.41
2023-08-04T00:35:51.389Z,25.31
2023-08-04T00:38:18.661Z,25.34
2023-08-04T00:40:45.943Z,25.35
2023-08-04T00:43:13.626Z,25.31
2023-08-04T00:45:41.211Z,25.32
2023-08-04T00:48:09.984Z,25.32
2023-08-04T00:50:37.559Z,25.27
2023-08-04T00:53:05.407Z,25.27
2023-08-04T00:55:35.861Z,25.28
2023-08-04T00:58:03.105Z,25.32
2023-08-04T01:00:30.563Z,25.48
2023-08-04T01:02:57.936Z,25.50
2023-08-04T01:05:37.975Z,25.35
2023-08-04T01:08:20.150Z,25.55
2023-08-04T01:10:59.706Z,25.65
2023-08-04T01:13:30.722Z,25.69
2023-08-04T01:16:00.033Z,25.64
2023-08-04T01:18:27.314Z,25.61
2023-08-04T01:20:54.487Z,25.55
2023-08-04T01:23:22.008Z,25.47
2023-08-04T01:25:49.880Z,25.32
2023-08-04T01:28:18.107Z,25.45
2023-08-04T01:30:48.431Z,25.42
2023-08-04T01:33:16.643Z,25.40
2023-08-04T01:35:44.417Z,25.46
2023-08-04T01:38:12.136Z,25.40
2023-08-04T01:40:40.548Z,25.51
2023-08-04T01:43:08.320Z,25.58
2023-08-04T01:45:35.633Z,25.64
2023-08-04T01:48:03.793Z,25.64
2023-08-04T01:50:31.048Z,25.71
2023-08-04T01:52:59.994Z,25.74
2023-08-04T01:55:27.244Z,25.57
2023-08-04T01:57:54.458Z,25.35
2023-08-04T02:00:21.800Z,25.34
2023-08-04T02:02:48.980Z,25.25
2023-08-04T02:05:16.607Z,25.21
2023-08-04T02:07:43.936Z,25.20
2023-08-04T02:10:11.429Z,25.07
2023-08-04T02:12:38.966Z,25.01
2023-08-04T02:15:07.360Z,24.84
2023-08-04T02:17:36.582Z,24.82
2023-08-04T02:20:06.717Z,24.71
2023-08-04T02:22:33.922Z,24.76
2023-08-04T02:25:01.360Z,24.62
2023-08-04T02:27:31.160Z,24.84
2023-08-04T02:29:58.337Z,24.97
2023-08-04T02:32:25.905Z,25.08
2023-08-04T02:34:53.346Z,25.11
2023-08-04T02:37:22.752Z,25.17
2023-08-04T02:39:50.010Z,25.21
2023-08-04T02:42:17.358Z,25.28
2023-08-04T02:44:44.729Z,25.43
2023-08-04T02:47:12.193Z,25.57
2023-08-04T02:49:40.943Z,25.50
2023-08-04T02:52:15.593Z,25.53
2023-08-04T02:54:46.318Z,25.49
2023-08-04T02:57:13.711Z,25.48
2023-08-04T02:59:41.066Z,25.47
2023-08-04T03:02:08.788Z,25.53
2023-08-04T03:04:36.369Z,25.48
2023-08-04T03:07:03.737Z,25.39
2023-08-04T03:09:30.970Z,25.52
2023-08-04T03:11:58.588Z,25.58
2023-08-04T03:14:26.016Z,25.80
2023-08-04T03:16:53.311Z,25.69
2023-08-04T03:19:20.530Z,25.78
2023-08-04T03:21:48.092Z,25.80
2023-08-04T03:24:16.006Z,25.85
2023-08-04T03:26:43.588Z,25.92
2023-08-04T03:29:11.246Z,25.93
2023-08-04T03:31:38.802Z,25.92
2023-08-04T03:34:06.059Z,25.87
2023-08-04T03:36:33.346Z,25.78
2023-08-04T03:39:01.303Z,25.86
2023-08-04T03:41:28.701Z,25.87
2023-08-04T03:43:56.887Z,26.09
2023-08-04T03:46:24.601Z,26.08
2023-08-04T03:48:52.725Z,26.21
2023-08-04T03:51:21.335Z,26.18
2023-08-04T03:53:49.013Z,26.12
2023-08-04T03:56:16.256Z,26.12
2023-08-04T03:58:43.434Z,26.14
2023-08-04T04:01:11.133Z,26.25
2023-08-04T04:03:38.941Z,26.44
2023-08-04T04:06:06.337Z,26.52
2023-08-04T04:08:33.695Z,26.55
2023-08-04T04:11:01.231Z,26.65
2023-08-04T04:13:28.811Z,26.48
2023-08-04T04:15:57.357Z,26.45
2023-08-04T04:18:24.770Z,26.36
2023-08-04T04:20:52.080Z,26.21
2023-08-04T04:23:19.472Z,26.02
2023-08-04T04:25:46.896Z,25.94
2023-08-04T04:28:14.711Z,25.92
2023-08-04T04:30:42.200Z,25.70
2023-08-04T04:33:10.653Z,25.69
2023-08-04T04:35:38.252Z,25.56
2023-08-04T04:38:05.462Z,25.63
2023-08-04T04:40:33.170Z,25.66
2023-08-04T04:43:00.692Z,25.64
2023-08-04T04:45:28.125Z,25.71
2023-08-04T04:47:57.158Z,25.71
2023-08-04T04:50:24.731Z,25.72
2023-08-04T04:52:53.364Z,25.64
2023-08-04T04:55:20.696Z,25.70
2023-08-04T04:57:47.951Z,25.82
2023-08-04T05:00:15.531Z,25.81
2023-08-04T05:02:42.813Z,25.82
2023-08-04T05:05:10.808Z,25.87
2023-08-04T05:07:38.207Z,25.96
2023-08-04T05:10:06.242Z,25.93
2023-08-04T05:12:33.506Z,26.04
2023-08-04T05:15:00.963Z,25.98
2023-08-04T05:17:28.202Z,26.03
2023-08-04T05:19:55.451Z,26.14
2023-08-04T05:22:23.149Z,26.31
2023-08-04T05:24:57.687Z,26.45
2023-08-04T05:27:32.956Z,26.53
2023-08-04T05:30:01.698Z,26.55
2023-08-04T05:32:37.062Z,26.84
2023-08-04T05:35:07.153Z,26.86
2023-08-04T05:37:35.039Z,27.10
2023-08-04T05:40:05.894Z,27.23
2023-08-04T05:42:33.298Z,27.39
2023-08-04T05:45:00.709Z,27.52
2023-08-04T05:47:29.144Z,27.59
2023-08-04T05:49:56.806Z,27.64
2023-08-04T05:52:24.053Z,27.77
2023-08-04T05:54:54.343Z,27.86
2023-08-04T05:57:21.522Z,27.94
2023-08-04T05:59:48.924Z,28.03
2023-08-04T06:02:18.184Z,28.22
2023-08-04T06:04:45.850Z,28.17
2023-08-04T06:07:13.196Z,28.38
2023-08-04T06:09:40.620Z,28.42
2023-08-04T06:12:08.748Z,28.51
2023-08-04T06:14:36.018Z,28.40
2023-08-04T06:17:03.365Z,28.63
2023-08-04T06:19:30.800Z,28.74
2023-08-04T06:21:58.066Z,28.75
2023-08-04T06:24:29.218Z,28.79
2023-08-04T06:26:56.461Z,28.87
2023-08-04T06:29:23.708Z,28.96
2023-08-04T06:31:53.067Z,29.02
2023-08-04T06:34:20.950Z,29.09
2023-08-04T06:36:48.974Z,29.12
2023-08-04T06:39:17.294Z,29.11
2023-08-04T06:41:46.104Z,29.20
2023-08-04T06:44:15.053Z,29.27
2023-08-04T06:46:43.029Z,29.22
2023-08-04T06:49:10.491Z,29.15
2023-08-04T06:51:38.121Z,29.04
2023-08-04T06:54:05.487Z,29.06
2023-08-04T06:56:34.093Z,28.98
2023-08-04T06:59:01.415Z,29.10
2023-08-04T07:01:28.840Z,29.21
2023-08-04T07:03:56.100Z,29.17
2023-08-04T07:06:24.810Z,29.32
2023-08-04T07:08:52.163Z,29.39
2023-08-04T07:11:19.552Z,29.54
2023-08-04T07:13:46.824Z,29.51
2023-08-04T07:16:14.621Z,29.54
2023-08-04T07:18:42.063Z,29.49
2023-08-04T07:21:11.394Z,29.50
2023-08-04T07:23:39.743Z,29.62
2023-08-04T07:26:08.790Z,29.73
2023-08-04T07:28:37.760Z,29.74
2023-08-04T07:31:10.817Z,29.82
2023-08-04T07:33:38.967Z,29.89
2023-08-04T07:36:06.338Z,29.87
2023-08-04T07:38:34.003Z,29.99
2023-08-04T07:41:01.609Z,30.08
2023-08-04T07:43:28.821Z,30.18
2023-08-04T07:45:56.166Z,30.22
2023-08-04T07:48:23.782Z,30.26
2023-08-04T07:50:52.653Z,30.37
2023-08-04T07:53:20.478Z,30.37
2023-08-04T07:55:58.365Z,30.43
2023-08-04T07:58:26.493Z,30.52
2023-08-04T08:00:54.066Z,30.61
2023-08-04T08:03:21.968Z,30.53
2023-08-04T08:05:49.472Z,30.73
2023-08-04T08:08:19.752Z,30.77
2023-08-04T08:10:47.113Z,30.86
2023-08-04T08:13:14.428Z,30.92
2023-08-04T08:15:41.869Z,30.94
2023-08-04T08:18:09.888Z,30.97
2023-08-04T08:20:41.820Z,31.04
2023-08-04T08:23:10.460Z,31.05
2023-08-04T08:25:38.374Z,31.02
2023-08-04T08:28:05.875Z,31.13
2023-08-04T08:30:33.580Z,31.16
2023-08-04T08:33:01.839Z,31.04
2023-08-04T08:35:29.233Z,31.18
2023-08-04T08:37:57.744Z,31.29
2023-08-04T08:40:27.811Z,31.22
2023-08-04T08:42:58.656Z,31.13
2023-08-04T08:45:30.205Z,31.24
2023-08-04T08:47:58.273Z,31.24
2023-08-04T08:50:27.758Z,31.24
2023-08-04T08:53:03.605Z,31.09
2023-08-04T08:55:32.664Z,31.05
2023-08-04T08:58:02.144Z,31.09
2023-08-04T09:00:30.078Z,30.97
2023-08-04T09:02:58.633Z,30.84
2023-08-04T09:05:29.385Z,30.82
2023-08-04T09:07:56.989Z,30.79
2023-08-04T09:10:24.655Z,30.81
2023-08-04T09:12:53.320Z,30.84
2023-08-04T09:15:20.671Z,30.70
2023-08-04T09:17:47.895Z,30.63
2023-08-04T09:20:29.538Z,30.58
2023-08-04T09:22:57.606Z,30.38
2023-08-04T09:25:26.096Z,30.39
2023-08-04T09:27:53.523Z,30.31
2023-08-04T09:30:20.880Z,30.30
2023-08-04T09:32:51.653Z,30.43
2023-08-04T09:35:19.129Z,30.46
2023-08-04T09:37:46.516Z,30.54
2023-08-04T09:40:21.419Z,30.70
2023-08-04T09:42:49.473Z,30.78
2023-08-04T09:45:20.044Z,30.92
2023-08-04T09:47:49.125Z,30.88
2023-08-04T09:50:21.288Z,31.08
2023-08-04T09:52:48.692Z,31.24
2023-08-04T09:55:16.329Z,31.32
2023-08-04T09:57:44.804Z,31.37
2023-08-04T10:00:15.223Z,31.31
2023-08-04T10:02:43.055Z,31.20
2023-08-04T10:05:12.852Z,31.21
2023-08-04T10:07:42.011Z,31.16
2023-08-04T10:10:09.866Z,31.22
2023-08-04T10:12:38.477Z,31.25
2023-08-04T10:15:06.996Z,31.32
2023-08-04T10:17:34.558Z,31.36
2023-08-04T10:20:05.452Z,31.50
2023-08-04T10:22:34.214Z,31.65
2023-08-04T10:25:02.020Z,31.70
2023-08-04T10:27:30.907Z,31.76
2023-08-04T10:30:09.645Z,31.72
2023-08-04T10:32:38.846Z,31.88
2023-08-04T10:35:26.892Z,32.04
2023-08-04T10:38:00.421Z,32.11
2023-08-04T10:40:32.890Z,32.29
2023-08-04T10:43:10.147Z,32.12
2023-08-04T10:45:54.399Z,32.26
2023-08-04T10:48:23.090Z,32.31
2023-08-04T10:50:51.120Z,32.41
2023-08-04T10:53:19.082Z,32.44
2023-08-04T10:55:55.724Z,32.51
2023-08-04T10:58:25.712Z,32.45
2023-08-04T11:00:54.855Z,32.44
2023-08-04T11:03:30.456Z,32.50
2023-08-04T11:05:58.154Z,32.67
2023-08-04T11:08:26.053Z,32.70
2023-08-04T11:10:59.109Z,32.87
2023-08-04T11:13:26.980Z,32.88
2023-08-04T11:15:54.961Z,32.92
2023-08-04T11:18:28.089Z,32.89
2023-08-04T11:20:55.346Z,32.82
2023-08-04T11:23:30.684Z,32.89
2023-08-04T11:25:59.714Z,32.82
2023-08-04T11:28:27.500Z,32.87
2023-08-04T11:31:07.480Z,32.90
2023-08-04T11:33:35.304Z,32.93
2023-08-04T11:36:05.383Z,33.05
2023-08-04T11:38:33.106Z,33.12
2023-08-04T11:41:02.445Z,33.18
2023-08-04T11:43:34.417Z,33.27
2023-08-04T11:46:07.499Z,33.34
2023-08-04T11:48:40.420Z,33.42
2023-08-04T11:51:09.793Z,33.42
2023-08-04T11:53:45.094Z,33.53
2023-08-04T11:56:29.184Z,33.54
2023-08-04T11:59:10.103Z,33.52
2023-08-04T12:01:40.446Z,33.57
2023-08-04T12:04:23.734Z,33.63
2023-08-04T12:07:06.298Z,33.56
2023-08-04T12:09:34.719Z,33.45
2023-08-04T12:12:04.137Z,33.56
2023-08-04T12:14:33.502Z,33.62
2023-08-04T12:17:04.843Z,33.71
2023-08-04T12:19:33.671Z,33.72
2023-08-04T12:22:05.170Z,33.89
2023-08-04T12:24:33.613Z,33.95
2023-08-04T12:27:00.876Z,34.02
2023-08-04T12:29:28.244Z,34.00
2023-08-04T12:31:55.521Z,34.01
2023-08-04T12:34:23.385Z,34.08
2023-08-04T12:36:51.080Z,34.09
2023-08-04T12:39:18.641Z,33.98
2023-08-04T12:41:46.028Z,33.92
2023-08-04T12:44:13.478Z,34.10
2023-08-04T12:46:40.826Z,34.11
2023-08-04T12:49:08.218Z,34.15
2023-08-04T12:51:35.674Z,34.06
2023-08-04T12:54:02.896Z,33.90
2023-08-04T12:56:30.098Z,34.03
2023-08-04T12:58:57.251Z,34.04
2023-08-04T13:01:24.866Z,34.03
2023-08-04T13:03:53.795Z,34.15
2023-08-04T13:06:21.120Z,34.21
2023-08-04T13:08:48.389Z,34.10
2023-08-04T13:11:15.984Z,34.13
2023-08-04T13:13:43.386Z,34.13
2023-08-04T13:16:11.173Z,34.23
2023-08-04T13:18:38.588Z,34.19
2023-08-04T13:21:06.474Z,34.12
2023-08-04T13:23:33.674Z,34.18
2023-08-04T13:26:05.567Z,34.24
2023-08-04T13:28:33.940Z,34.26
2023-08-04T13:31:05.557Z,34.29
2023-08-04T13:33:33.406Z,34.24
2023-08-04T13:36:00.912Z,34.28
2023-08-04T13:38:28.362Z,34.22
2023-08-04T13:40:56.852Z,34.15
2023-08-04T13:43:27.372Z,34.13
2023-08-04T13:45:54.770Z,34.16
2023-08-04T13:48:21.944Z,34.22
2023-08-04T13:50:49.132Z,34.16
2023-08-04T13:53:16.470Z,34.09
2023-08-04T13:55:43.990Z,34.26
2023-08-04T13:58:11.233Z,34.17
2023-08-04T14:00:38.571Z,34.17
2023-08-04T14:03:05.822Z,34.26
2023-08-04T14:05:33.142Z,34.28
2023-08-04T14:08:04.214Z,34.29
2023-08-04T14:10:31.444Z,34.29
2023-08-04T14:12:58.876Z,34.29
2023-08-04T14:15:27.030Z,34.45
2023-08-04T14:17:54.288Z,34.51
2023-08-04T14:20:21.709Z,34.64
2023-08-04T14:22:49.216Z,34.58
2023-08-04T14:25:16.581Z,34.64
2023-08-04T14:27:43.845Z,34.58
2023-08-04T14:30:11.618Z,34.40
2023-08-04T14:32:39.904Z,34.47
2023-08-04T14:35:07.891Z,34.47
2023-08-04T14:37:35.260Z,34.50
2023-08-04T14:40:02.584Z,34.41
2023-08-04T14:42:31.264Z,34.41
2023-08-04T14:44:58.636Z,34.51
2023-08-04T14:47:26.227Z,34.46
2023-08-04T14:49:53.621Z,34.41
2023-08-04T14:52:20.905Z,34.43
2023-08-04T14:54:50.426Z,34.40
2023-08-04T14:57:17.737Z,34.24
2023-08-04T14:59:45.175Z,34.23
2023-08-04T15:02:12.606Z,34.13
2023-08-04T15:04:40.047Z,34.01
2023-08-04T15:07:07.359Z,33.88
2023-08-04T15:09:34.599Z,33.69
2023-08-04T15:12:01.936Z,33.66
2023-08-04T15:14:29.748Z,33.61
2023-08-04T15:16:57.148Z,33.43
2023-08-04T15:19:24.614Z,33.32
2023-08-04T15:21:51.990Z,33.24
2023-08-04T15:24:19.288Z,33.25
2023-08-04T15:26:47.286Z,33.21
2023-08-04T15:29:14.960Z,33.28
2023-08-04T15:31:42.245Z,33.27
2023-08-04T15:34:09.591Z,33.32
2023-08-04T15:36:36.910Z,33.34
2023-08-04T15:39:04.321Z,33.38
2023-08-04T15:41:31.528Z,33.43
2023-08-04T15:43:58.812Z,33.36
2023-08-04T15:46:26.175Z,33.31
2023-08-04T15:48:53.373Z,33.28
2023-08-04T15:51:20.958Z,33.26
2023-08-04T15:53:49.036Z,33.19
2023-08-04T15:56:16.208Z,33.06
2023-08-04T15:58:43.517Z,33.08
2023-08-04T16:01:10.916Z,33.04
2023-08-04T16:03:38.131Z,32.94
2023-08-04T16:06:05.440Z,32.75
2023-08-04T16:08:33.019Z,32.70
2023-08-04T16:11:01.972Z,32.59
2023-08-04T16:13:29.299Z,32.41
2023-08-04T16:16:08.092Z,32.48
2023-08-04T16:18:38.300Z,32.35
2023-08-04T16:21:07.611Z,32.39
2023-08-04T16:23:36.310Z,32.30
2023-08-04T16:26:03.968Z,32.29
2023-08-04T16:28:32.778Z,32.25
2023-08-04T16:31:00.720Z,32.21
2023-08-04T16:33:28.855Z,32.11
2023-08-04T16:35:56.273Z,32.08
2023-08-04T16:38:24.353Z,31.92
2023-08-04T16:40:56.985Z,31.85
2023-08-04T16:43:25.976Z,31.84
2023-08-04T16:45:54.941Z,31.76
2023-08-04T16:48:22.593Z,31.73
2023-08-04T16:50:49.871Z,31.71
2023-08-04T16:53:21.019Z,31.64
2023-08-04T16:55:53.334Z,31.63
2023-08-04T16:58:21.266Z,31.51
2023-08-04T17:00:48.473Z,31.45
2023-08-04T17:03:15.840Z,31.46
2023-08-04T17:05:43.215Z,31.46
2023-08-04T17:08:10.539Z,31.42
2023-08-04T17:10:41.561Z,31.42
2023-08-04T17:13:08.778Z,31.40
2023-08-04T17:15:39.111Z,31.38
2023-08-04T17:18:12.547Z,31.30
2023-08-04T17:20:40.782Z,31.27
2023-08-04T17:23:08.335Z,31.27
2023-08-04T17:25:35.675Z,31.20
2023-08-04T17:28:03.175Z,31.23
2023-08-04T17:30:30.594Z,31.20
2023-08-04T17:32:58.365Z,31.15
2023-08-04T17:35:25.936Z,31.12
2023-08-04T17:37:53.376Z,31.04
2023-08-04T17:40:20.915Z,31.14
2023-08-04T17:42:48.205Z,31.08
2023-08-04T17:45:15.978Z,31.14
2023-08-04T17:47:43.274Z,31.07
2023-08-04T17:50:10.804Z,31.02
2023-08-04T17:52:38.788Z,31.10
2023-08-04T17:55:06.563Z,31.00
2023-08-04T17:57:36.930Z,30.81
2023-08-04T18:00:08.263Z,30.96
2023-08-04T18:02:44.864Z,30.79
2023-08-04T18:05:12.321Z,30.84
2023-08-04T18:07:39.825Z,30.85
2023-08-04T18:10:07.769Z,30.85
2023-08-04T18:12:35.068Z,30.85
2023-08-04T18:15:02.439Z,30.77
2023-08-04T18:17:32.913Z,30.79
2023-08-04T18:20:00.283Z,30.76
2023-08-04T18:22:27.550Z,30.78
2023-08-04T18:24:56.241Z,30.75
2023-08-04T18:27:23.490Z,30.67
2023-08-04T18:29:50.855Z,30.70
2023-08-04T18:32:18.917Z,30.63
2023-08-04T18:34:46.370Z,30.65
2023-08-04T18:37:14.004Z,30.61
2023-08-04T18:39:41.325Z,30.65
2023-08-04T18:42:09.769Z,30.57
2023-08-04T18:44:38.382Z,30.37
2023-08-04T18:47:05.771Z,30.35
2023-08-04T18:49:38.948Z,30.27
2023-08-04T18:52:06.437Z,30.29
2023-08-04T18:54:34.031Z,30.23
2023-08-04T18:57:01.349Z,30.13
2023-08-04T18:59:28.849Z,30.13
2023-08-04T19:01:59.121Z,30.14
2023-08-04T19:04:28.471Z,30.03
2023-08-04T19:06:56.116Z,30.04
2023-08-04T19:09:23.338Z,29.94
2023-08-04T19:11:50.733Z,29.94
2023-08-04T19:14:22.304Z,29.88
2023-08-04T19:16:50.500Z,29.75
2023-08-04T19:19:18.842Z,29.79
2023-08-04T19:21:46.120Z,29.68
2023-08-04T19:24:16.488Z,29.70
2023-08-04T19:26:44.323Z,29.63
2023-08-04T19:29:34.210Z,29.67
2023-08-04T19:32:04.515Z,29.38
2023-08-04T19:34:32.929Z,29.47
2023-08-04T19:37:00.344Z,29.49
2023-08-04T19:39:27.871Z,29.46
2023-08-04T19:41:55.327Z,29.37
2023-08-04T19:44:22.883Z,29.39
2023-08-04T19:46:50.425Z,29.28
2023-08-04T19:49:17.923Z,29.22
2023-08-04T19:51:45.883Z,29.15
2023-08-04T19:54:13.456Z,29.09
2023-08-04T19:56:40.870Z,28.98
2023-08-04T19:59:08.094Z,28.95
2023-08-04T20:01:35.576Z,28.84
2023-08-04T20:04:02.802Z,28.83
2023-08-04T20:06:30.286Z,28.70
2023-08-04T20:08:57.589Z,28.66
2023-08-04T20:11:24.974Z,28.60
2023-08-04T20:13:52.572Z,28.56
2023-08-04T20:16:22.704Z,28.58
2023-08-04T20:18:51.398Z,28.49
2023-08-04T20:21:22.092Z,28.52
2023-08-04T20:23:49.685Z,28.41
2023-08-04T20:26:17.054Z,28.39
2023-08-04T20:28:46.216Z,28.36
2023-08-04T20:31:17.216Z,28.30
2023-08-04T20:33:44.893Z,28.25
2023-08-04T20:36:15.724Z,28.26
2023-08-04T20:38:43.431Z,28.23
2023-08-04T20:41:12.576Z,28.23
2023-08-04T20:43:41.885Z,28.23
2023-08-04T20:46:10.710Z,28.20
2023-08-04T20:48:38.734Z,28.13
2023-08-04T20:51:09.024Z,28.11
2023-08-04T20:53:39.528Z,28.09
2023-08-04T20:56:08.770Z,28.07
2023-08-04T20:58:38.846Z,28.02
2023-08-04T21:01:12.476Z,28.01
2023-08-04T21:03:42.484Z,27.88
2023-08-04T21:06:09.999Z,27.91
2023-08-04T21:08:37.301Z,28.01
2023-08-04T21:11:05.928Z,27.97
2023-08-04T21:13:33.607Z,27.98
2023-08-04T21:16:01.910Z,27.88
2023-08-04T21:18:29.448Z,27.94
2023-08-04T21:20:58.470Z,27.88
2023-08-04T21:23:26.883Z,27.85
2023-08-04T21:25:54.318Z,27.82
2023-08-04T21:28:22.808Z,27.84
2023-08-04T21:30:54.105Z,27.72
2023-08-04T21:33:24.528Z,27.75
2023-08-04T21:36:00.148Z,27.71
2023-08-04T21:38:28.548Z,27.69
2023-08-04T21:40:59.111Z,27.62
2023-08-04T21:43:29.577Z,27.52
2023-08-04T21:45:58.128Z,27.48
2023-08-04T21:48:25.399Z,27.40
2023-08-04T21:50:52.714Z,27.44
2023-08-04T21:53:20.358Z,27.39
2023-08-04T21:55:53.912Z,27.34
2023-08-04T21:58:21.193Z,27.41
2023-08-04T22:00:48.476Z,27.33
2023-08-04T22:03:15.770Z,27.30
2023-08-04T22:05:45.621Z,27.28
2023-08-04T22:08:12.853Z,27.25
2023-08-04T22:10:40.061Z,27.21
2023-08-04T22:13:07.283Z,27.15
2023-08-04T22:15:34.567Z,27.09
2023-08-04T22:18:01.910Z,27.08
2023-08-04T22:20:29.580Z,27.03
2023-08-04T22:22:57.160Z,27.05
2023-08-04T22:25:24.520Z,26.99
2023-08-04T22:27:51.772Z,26.95
2023-08-04T22:30:18.971Z,26.93
2023-08-04T22:32:47.392Z,26.90
2023-08-04T22:35:14.687Z,26.89
2023-08-04T22:37:42.304Z,26.79
2023-08-04T22:40:11.323Z,26.81
2023-08-04T22:42:38.836Z,26.83
2023-08-04T22:45:06.901Z,26.74
2023-08-04T22:47:34.344Z,26.81
2023-08-04T22:50:01.672Z,26.82
2023-08-04T22:52:30.951Z,26.84
2023-08-04T22:54:58.471Z,26.87
2023-08-04T22:57:25.900Z,26.87
2023-08-04T22:59:57.539Z,26.76
2023-08-04T23:02:25.746Z,26.82
2023-08-04T23:04:53.500Z,26.85
2023-08-04T23:07:25.983Z,26.75
2023-08-04T23:09:56.643Z,26.70
2023-08-04T23:12:24.007Z,26.73
2023-08-04T23:14:54.277Z,26.70
2023-08-04T23:17:24.443Z,26.74
2023-08-04T23:19:51.847Z,26.76
2023-08-04T23:22:19.198Z,26.69
2023-08-04T23:24:49.037Z,26.70
2023-08-04T23:27:16.226Z,26.71
2023-08-04T23:29:44.052Z,26.69
2023-08-04T23:32:11.627Z,26.62
2023-08-04T23:34:38.991Z,26.63
2023-08-04T23:37:09.385Z,26.62
2023-08-04T23:39:38.956Z,26.58
2023-08-04T23:42:06.538Z,26.57
2023-08-04T23:44:33.793Z,26.47
2023-08-04T23:47:01.177Z,26.48
2023-08-04T23:49:28.494Z,26.38
2023-08-04T23:51:55.773Z,26.41
2023-08-04T23:54:23.199Z,26.29
2023-08-04T23:56:51.950Z,26.25
2023-08-04T23:59:22.455Z,26.28
